sensor_id;sensor_type;location;lat;lon;timestamp;pressure;altitude;pressure_sealevel;temperature;humidity
53659;BME280;41524;35.624;139.698;2024-01-30T00:00:12;102790.00;;;16.64;23.71
53659;BME280;41524;35.624;139.698;2024-01-30T00:05:12;102782.00;;;18.63;21.89
53659;BME280;41524;35.624;139.698;2024-01-30T00:10:11;102786.00;;;18.68;22.25
53659;BME280;41524;35.624;139.698;2024-01-30T00:15:10;102778.00;;;18.85;22.26
53659;BME280;41524;35.624;139.698;2024-01-30T00:20:11;102768.00;;;20.71;21.00
53659;BME280;41524;35.624;139.698;2024-01-30T00:25:10;102763.00;;;22.50;19.84
53659;BME280;41524;35.624;139.698;2024-01-30T00:30:12;102775.00;;;19.19;20.87
53659;BME280;41524;35.624;139.698;2024-01-30T00:35:10;102772.00;;;22.48;19.93
53659;BME280;41524;35.624;139.698;2024-01-30T00:40:11;102772.00;;;19.96;20.22
53659;BME280;41524;35.624;139.698;2024-01-30T00:45:14;102771.00;;;15.61;24.55
53659;BME280;41524;35.624;139.698;2024-01-30T00:50:11;102778.00;;;11.97;27.19
53659;BME280;41524;35.624;139.698;2024-01-30T00:55:10;102780.00;;;11.00;30.92
53659;BME280;41524;35.624;139.698;2024-01-30T01:00:12;102777.00;;;12.05;29.32
53659;BME280;41524;35.624;139.698;2024-01-30T01:05:11;102778.00;;;9.50;31.81
53659;BME280;41524;35.624;139.698;2024-01-30T01:10:11;102775.00;;;11.47;29.72
53659;BME280;41524;35.624;139.698;2024-01-30T01:15:12;102771.00;;;11.35;30.21
53659;BME280;41524;35.624;139.698;2024-01-30T01:20:12;102779.00;;;10.48;30.54
53659;BME280;41524;35.624;139.698;2024-01-30T01:25:11;102775.00;;;12.64;30.09
53659;BME280;41524;35.624;139.698;2024-01-30T01:30:12;102776.00;;;10.74;30.11
53659;BME280;41524;35.624;139.698;2024-01-30T01:35:12;102770.00;;;10.09;30.55
53659;BME280;41524;35.624;139.698;2024-01-30T01:40:11;102765.00;;;11.15;29.57
53659;BME280;41524;35.624;139.698;2024-01-30T01:45:10;102761.00;;;11.78;28.53
53659;BME280;41524;35.624;139.698;2024-01-30T01:50:11;102755.00;;;11.87;28.22
53659;BME280;41524;35.624;139.698;2024-01-30T01:55:11;102749.00;;;11.62;27.83
53659;BME280;41524;35.624;139.698;2024-01-30T02:00:11;102738.00;;;12.69;26.66
53659;BME280;41524;35.624;139.698;2024-01-30T02:05:11;102723.00;;;12.53;28.29
53659;BME280;41524;35.624;139.698;2024-01-30T02:10:11;102717.00;;;12.18;28.09
53659;BME280;41524;35.624;139.698;2024-01-30T02:15:14;102706.00;;;12.66;27.73
53659;BME280;41524;35.624;139.698;2024-01-30T02:20:12;102709.00;;;12.64;28.82
53659;BME280;41524;35.624;139.698;2024-01-30T02:25:10;102706.00;;;8.73;30.92
53659;BME280;41524;35.624;139.698;2024-01-30T02:30:12;102691.00;;;9.54;31.14
53659;BME280;41524;35.624;139.698;2024-01-30T02:35:20;102682.00;;;11.92;28.13
53659;BME280;41524;35.624;139.698;2024-01-30T02:40:12;102695.00;;;7.92;31.80
53659;BME280;41524;35.624;139.698;2024-01-30T02:45:12;102685.00;;;12.66;27.78
53659;BME280;41524;35.624;139.698;2024-01-30T02:50:11;102681.00;;;10.53;28.74
53659;BME280;41524;35.624;139.698;2024-01-30T02:55:10;102670.00;;;12.72;26.76
53659;BME280;41524;35.624;139.698;2024-01-30T03:00:13;102655.00;;;14.42;25.80
53659;BME280;41524;35.624;139.698;2024-01-30T03:05:10;102650.00;;;11.00;29.07
53659;BME280;41524;35.624;139.698;2024-01-30T03:10:11;102646.00;;;11.42;27.59
53659;BME280;41524;35.624;139.698;2024-01-30T03:15:11;102639.00;;;13.06;26.28
53659;BME280;41524;35.624;139.698;2024-01-30T03:20:11;102633.00;;;13.43;25.44
53659;BME280;41524;35.624;139.698;2024-01-30T03:25:11;102626.00;;;10.88;28.38
53659;BME280;41524;35.624;139.698;2024-01-30T03:30:11;102617.00;;;13.87;26.19
53659;BME280;41524;35.624;139.698;2024-01-30T03:35:11;102613.00;;;13.54;26.14
53659;BME280;41524;35.624;139.698;2024-01-30T03:40:11;102603.00;;;13.82;26.06
53659;BME280;41524;35.624;139.698;2024-01-30T03:45:11;102599.00;;;15.61;24.60
53659;BME280;41524;35.624;139.698;2024-01-30T03:50:11;102597.00;;;11.61;27.38
53659;BME280;41524;35.624;139.698;2024-01-30T03:55:10;102578.00;;;14.15;25.43
53659;BME280;41524;35.624;139.698;2024-01-30T04:00:11;102571.00;;;14.91;23.77
53659;BME280;41524;35.624;139.698;2024-01-30T04:05:11;102577.00;;;13.24;25.53
53659;BME280;41524;35.624;139.698;2024-01-30T04:10:12;102580.00;;;15.19;24.21
53659;BME280;41524;35.624;139.698;2024-01-30T04:15:11;102569.00;;;14.05;24.39
53659;BME280;41524;35.624;139.698;2024-01-30T04:20:14;102557.00;;;15.74;23.69
53659;BME280;41524;35.624;139.698;2024-01-30T04:25:11;102551.00;;;15.92;22.64
53659;BME280;41524;35.624;139.698;2024-01-30T04:30:11;102546.00;;;16.05;23.13
53659;BME280;41524;35.624;139.698;2024-01-30T04:35:11;102543.00;;;16.01;23.25
53659;BME280;41524;35.624;139.698;2024-01-30T04:40:14;102527.00;;;13.03;25.54
53659;BME280;41524;35.624;139.698;2024-01-30T04:45:11;102524.00;;;15.68;23.10
53659;BME280;41524;35.624;139.698;2024-01-30T04:50:11;102516.00;;;17.65;22.44
53659;BME280;41524;35.624;139.698;2024-01-30T04:55:12;102521.00;;;15.79;22.83
53659;BME280;41524;35.624;139.698;2024-01-30T05:00:11;102525.00;;;10.67;27.52
53659;BME280;41524;35.624;139.698;2024-01-30T05:05:11;102514.00;;;14.85;24.19
53659;BME280;41524;35.624;139.698;2024-01-30T05:10:11;102518.00;;;11.97;26.05
53659;BME280;41524;35.624;139.698;2024-01-30T05:15:11;102518.00;;;11.89;26.50
53659;BME280;41524;35.624;139.698;2024-01-30T05:20:12;102519.00;;;11.20;27.45
53659;BME280;41524;35.624;139.698;2024-01-30T05:25:11;102509.00;;;12.69;25.03
53659;BME280;41524;35.624;139.698;2024-01-30T05:30:12;102512.00;;;12.13;25.25
53659;BME280;41524;35.624;139.698;2024-01-30T05:35:11;102511.00;;;8.15;29.39
53659;BME280;41524;35.624;139.698;2024-01-30T05:40:12;102507.00;;;11.29;26.95
53659;BME280;41524;35.624;139.698;2024-01-30T05:45:11;102506.00;;;12.46;25.35
53659;BME280;41524;35.624;139.698;2024-01-30T05:50:11;102509.00;;;10.03;26.35
53659;BME280;41524;35.624;139.698;2024-01-30T05:55:12;102513.00;;;11.12;25.80
53659;BME280;41524;35.624;139.698;2024-01-30T06:00:11;102504.00;;;9.02;28.22
53659;BME280;41524;35.624;139.698;2024-01-30T06:05:12;102506.00;;;11.40;26.45
53659;BME280;41524;35.624;139.698;2024-01-30T06:10:11;102505.00;;;8.79;28.60
53659;BME280;41524;35.624;139.698;2024-01-30T06:15:11;102499.00;;;11.26;26.03
53659;BME280;41524;35.624;139.698;2024-01-30T06:20:10;102496.00;;;9.75;27.86
53659;BME280;41524;35.624;139.698;2024-01-30T06:25:10;102500.00;;;8.94;28.69
53659;BME280;41524;35.624;139.698;2024-01-30T06:30:12;102500.00;;;10.35;27.57
53659;BME280;41524;35.624;139.698;2024-01-30T06:35:11;102511.00;;;8.33;31.14
53659;BME280;41524;35.624;139.698;2024-01-30T06:40:12;102514.00;;;9.68;29.83
53659;BME280;41524;35.624;139.698;2024-01-30T06:45:15;102522.00;;;10.51;29.07
53659;BME280;41524;35.624;139.698;2024-01-30T06:50:11;102516.00;;;9.68;30.14
53659;BME280;41524;35.624;139.698;2024-01-30T06:55:11;102524.00;;;16.39;23.06
53659;BME280;41524;35.624;139.698;2024-01-30T07:00:11;102524.00;;;19.88;18.84
53659;BME280;41524;35.624;139.698;2024-01-30T07:05:11;102518.00;;;19.94;18.29
53659;BME280;41524;35.624;139.698;2024-01-30T07:10:11;102530.00;;;12.94;22.24
53659;BME280;41524;35.624;139.698;2024-01-30T07:15:11;102550.00;;;11.10;24.69
53659;BME280;41524;35.624;139.698;2024-01-30T07:20:11;102554.00;;;10.87;24.86
53659;BME280;41524;35.624;139.698;2024-01-30T07:25:11;102560.00;;;9.84;25.42
53659;BME280;41524;35.624;139.698;2024-01-30T07:30:12;102567.00;;;10.14;25.40
53659;BME280;41524;35.624;139.698;2024-01-30T07:35:11;102567.00;;;10.98;25.59
53659;BME280;41524;35.624;139.698;2024-01-30T07:40:12;102576.00;;;10.97;26.01
53659;BME280;41524;35.624;139.698;2024-01-30T07:45:10;102577.00;;;10.93;26.38
53659;BME280;41524;35.624;139.698;2024-01-30T07:50:11;102582.00;;;10.90;26.59
53659;BME280;41524;35.624;139.698;2024-01-30T07:55:10;102590.00;;;10.78;27.21
53659;BME280;41524;35.624;139.698;2024-01-30T08:00:12;102587.00;;;11.14;26.70
53659;BME280;41524;35.624;139.698;2024-01-30T08:05:11;102596.00;;;11.15;27.45
53659;BME280;41524;35.624;139.698;2024-01-30T08:10:13;102600.00;;;10.73;28.38
53659;BME280;41524;35.624;139.698;2024-01-30T08:15:12;102610.00;;;10.44;28.37
53659;BME280;41524;35.624;139.698;2024-01-30T08:20:11;102604.00;;;10.85;28.72
53659;BME280;41524;35.624;139.698;2024-01-30T08:25:11;102609.00;;;10.45;29.40
53659;BME280;41524;35.624;139.698;2024-01-30T08:30:12;102604.00;;;10.24;29.38
53659;BME280;41524;35.624;139.698;2024-01-30T08:35:10;102607.00;;;10.08;29.62
53659;BME280;41524;35.624;139.698;2024-01-30T08:40:11;102616.00;;;10.22;29.88
53659;BME280;41524;35.624;139.698;2024-01-30T08:45:11;102621.00;;;10.29;29.81
53659;BME280;41524;35.624;139.698;2024-01-30T08:50:10;102627.00;;;9.74;29.87
53659;BME280;41524;35.624;139.698;2024-01-30T08:55:11;102629.00;;;9.41;30.35
53659;BME280;41524;35.624;139.698;2024-01-30T09:00:12;102633.00;;;10.15;29.96
53659;BME280;41524;35.624;139.698;2024-01-30T09:05:11;102636.00;;;10.02;29.72
53659;BME280;41524;35.624;139.698;2024-01-30T09:10:10;102644.00;;;9.67;30.68
53659;BME280;41524;35.624;139.698;2024-01-30T09:15:11;102641.00;;;9.56;31.06
53659;BME280;41524;35.624;139.698;2024-01-30T09:20:12;102644.00;;;9.91;30.77
53659;BME280;41524;35.624;139.698;2024-01-30T09:25:11;102648.00;;;10.61;30.19
53659;BME280;41524;35.624;139.698;2024-01-30T09:30:14;102658.00;;;9.54;31.59
53659;BME280;41524;35.624;139.698;2024-01-30T09:35:11;102664.00;;;9.35;33.02
53659;BME280;41524;35.624;139.698;2024-01-30T09:40:11;102666.00;;;9.11;32.86
53659;BME280;41524;35.624;139.698;2024-01-30T09:45:12;102670.00;;;9.29;33.36
53659;BME280;41524;35.624;139.698;2024-01-30T09:50:12;102669.00;;;9.06;34.17
53659;BME280;41524;35.624;139.698;2024-01-30T09:55:10;102668.00;;;8.97;34.18
53659;BME280;41524;35.624;139.698;2024-01-30T10:00:13;102674.00;;;9.51;34.25
53659;BME280;41524;35.624;139.698;2024-01-30T10:05:13;102681.00;;;9.25;34.41
53659;BME280;41524;35.624;139.698;2024-01-30T10:10:11;102685.00;;;9.06;35.57
53659;BME280;41524;35.624;139.698;2024-01-30T10:15:11;102689.00;;;9.52;34.27
53659;BME280;41524;35.624;139.698;2024-01-30T10:20:12;102689.00;;;8.77;35.87
53659;BME280;41524;35.624;139.698;2024-01-30T10:25:11;102700.00;;;8.44;36.73
53659;BME280;41524;35.624;139.698;2024-01-30T10:30:12;102712.00;;;8.14;39.48
53659;BME280;41524;35.624;139.698;2024-01-30T10:35:11;102716.00;;;9.04;37.52
53659;BME280;41524;35.624;139.698;2024-01-30T10:40:14;102719.00;;;8.27;37.31
53659;BME280;41524;35.624;139.698;2024-01-30T10:45:12;102716.00;;;8.74;36.97
53659;BME280;41524;35.624;139.698;2024-01-30T10:50:12;102716.00;;;8.40;37.36
53659;BME280;41524;35.624;139.698;2024-01-30T10:55:12;102711.00;;;8.55;36.99
53659;BME280;41524;35.624;139.698;2024-01-30T11:00:19;102704.00;;;8.36;37.36
53659;BME280;41524;35.624;139.698;2024-01-30T11:05:12;102702.00;;;8.40;37.40
53659;BME280;41524;35.624;139.698;2024-01-30T11:10:11;102696.00;;;8.61;37.97
53659;BME280;41524;35.624;139.698;2024-01-30T11:15:13;102689.00;;;8.88;38.27
53659;BME280;41524;35.624;139.698;2024-01-30T11:20:12;102678.00;;;9.06;38.80
53659;BME280;41524;35.624;139.698;2024-01-30T11:25:14;102673.00;;;8.26;39.96
53659;BME280;41524;35.624;139.698;2024-01-30T11:30:11;102670.00;;;8.40;40.16
53659;BME280;41524;35.624;139.698;2024-01-30T11:35:12;102667.00;;;8.88;39.94
53659;BME280;41524;35.624;139.698;2024-01-30T11:40:11;102673.00;;;8.14;41.23
53659;BME280;41524;35.624;139.698;2024-01-30T11:45:10;102676.00;;;8.37;41.20
53659;BME280;41524;35.624;139.698;2024-01-30T11:50:10;102680.00;;;7.82;42.58
53659;BME280;41524;35.624;139.698;2024-01-30T11:55:11;102681.00;;;7.19;43.16
53659;BME280;41524;35.624;139.698;2024-01-30T12:00:17;102683.00;;;7.49;44.25
53659;BME280;41524;35.624;139.698;2024-01-30T12:05:11;102682.00;;;7.97;44.74
53659;BME280;41524;35.624;139.698;2024-01-30T12:10:12;102679.00;;;7.40;46.65
53659;BME280;41524;35.624;139.698;2024-01-30T12:15:11;102680.00;;;8.38;45.85
53659;BME280;41524;35.624;139.698;2024-01-30T12:20:12;102686.00;;;7.91;46.91
53659;BME280;41524;35.624;139.698;2024-01-30T12:25:12;102677.00;;;8.36;46.37
53659;BME280;41524;35.624;139.698;2024-01-30T12:30:13;102687.00;;;7.27;47.46
53659;BME280;41524;35.624;139.698;2024-01-30T12:35:12;102683.00;;;7.01;47.90
53659;BME280;41524;35.624;139.698;2024-01-30T12:40:11;102682.00;;;8.27;46.15
53659;BME280;41524;35.624;139.698;2024-01-30T12:45:11;102684.00;;;7.96;46.89
53659;BME280;41524;35.624;139.698;2024-01-30T12:50:11;102680.00;;;7.91;46.84
53659;BME280;41524;35.624;139.698;2024-01-30T12:55:11;102672.00;;;7.38;47.42
53659;BME280;41524;35.624;139.698;2024-01-30T13:00:16;102673.00;;;7.31;47.95
53659;BME280;41524;35.624;139.698;2024-01-30T13:05:11;102675.00;;;7.88;46.99
53659;BME280;41524;35.624;139.698;2024-01-30T13:10:11;102673.00;;;7.58;47.27
53659;BME280;41524;35.624;139.698;2024-01-30T13:15:12;102672.00;;;7.93;46.87
53659;BME280;41524;35.624;139.698;2024-01-30T13:20:12;102679.00;;;8.10;46.04
53659;BME280;41524;35.624;139.698;2024-01-30T13:25:11;102679.00;;;7.61;47.23
53659;BME280;41524;35.624;139.698;2024-01-30T13:30:11;102676.00;;;7.47;47.18
53659;BME280;41524;35.624;139.698;2024-01-30T13:35:10;102678.00;;;7.76;47.15
53659;BME280;41524;35.624;139.698;2024-01-30T13:40:11;102675.00;;;6.88;48.20
53659;BME280;41524;35.624;139.698;2024-01-30T13:45:11;102673.00;;;7.78;46.46
53659;BME280;41524;35.624;139.698;2024-01-30T13:50:13;102673.00;;;7.22;47.63
53659;BME280;41524;35.624;139.698;2024-01-30T13:55:10;102669.00;;;7.29;47.59
53659;BME280;41524;35.624;139.698;2024-01-30T14:00:12;102669.00;;;7.73;47.90
53659;BME280;41524;35.624;139.698;2024-01-30T14:05:11;102670.00;;;7.33;47.85
53659;BME280;41524;35.624;139.698;2024-01-30T14:10:11;102675.00;;;6.79;48.63
53659;BME280;41524;35.624;139.698;2024-01-30T14:15:11;102671.00;;;8.29;46.55
53659;BME280;41524;35.624;139.698;2024-01-30T14:20:11;102667.00;;;7.51;47.46
53659;BME280;41524;35.624;139.698;2024-01-30T14:25:10;102663.00;;;7.81;46.54
53659;BME280;41524;35.624;139.698;2024-01-30T14:30:12;102657.00;;;7.09;47.65
53659;BME280;41524;35.624;139.698;2024-01-30T14:35:11;102650.00;;;7.14;47.12
53659;BME280;41524;35.624;139.698;2024-01-30T14:40:11;102640.00;;;6.60;44.88
53659;BME280;41524;35.624;139.698;2024-01-30T14:45:11;102652.00;;;7.31;43.69
53659;BME280;41524;35.624;139.698;2024-01-30T14:50:10;102646.00;;;6.52;42.94
53659;BME280;41524;35.624;139.698;2024-01-30T14:55:10;102648.00;;;6.42;42.31
53659;BME280;41524;35.624;139.698;2024-01-30T15:00:12;102646.00;;;6.34;42.06
53659;BME280;41524;35.624;139.698;2024-01-30T15:05:11;102650.00;;;6.93;41.31
53659;BME280;41524;35.624;139.698;2024-01-30T15:10:11;102643.00;;;6.81;41.59
53659;BME280;41524;35.624;139.698;2024-01-30T15:15:11;102644.00;;;6.00;41.64
53659;BME280;41524;35.624;139.698;2024-01-30T15:20:11;102641.00;;;6.44;41.66
53659;BME280;41524;35.624;139.698;2024-01-30T15:25:11;102641.00;;;5.91;41.10
53659;BME280;41524;35.624;139.698;2024-01-30T15:30:12;102645.00;;;6.28;40.43
53659;BME280;41524;35.624;139.698;2024-01-30T15:35:11;102641.00;;;6.51;40.32
53659;BME280;41524;35.624;139.698;2024-01-30T15:40:12;102643.00;;;5.43;41.61
53659;BME280;41524;35.624;139.698;2024-01-30T15:45:10;102642.00;;;5.91;40.22
53659;BME280;41524;35.624;139.698;2024-01-30T15:50:12;102643.00;;;5.72;41.06
53659;BME280;41524;35.624;139.698;2024-01-30T15:55:12;102644.00;;;5.28;41.52
53659;BME280;41524;35.624;139.698;2024-01-30T16:00:13;102641.00;;;5.06;41.63
53659;BME280;41524;35.624;139.698;2024-01-30T16:05:12;102638.00;;;5.28;41.43
53659;BME280;41524;35.624;139.698;2024-01-30T16:10:12;102647.00;;;5.80;40.63
53659;BME280;41524;35.624;139.698;2024-01-30T16:15:10;102650.00;;;6.03;40.58
53659;BME280;41524;35.624;139.698;2024-01-30T16:20:11;102643.00;;;4.83;41.59
53659;BME280;41524;35.624;139.698;2024-01-30T16:25:12;102640.00;;;5.24;40.84
53659;BME280;41524;35.624;139.698;2024-01-30T16:30:11;102644.00;;;4.82;41.64
53659;BME280;41524;35.624;139.698;2024-01-30T16:35:12;102649.00;;;4.74;42.16
53659;BME280;41524;35.624;139.698;2024-01-30T16:40:11;102642.00;;;4.61;42.43
53659;BME280;41524;35.624;139.698;2024-01-30T16:45:11;102643.00;;;4.38;42.59
53659;BME280;41524;35.624;139.698;2024-01-30T16:50:10;102647.00;;;4.43;42.74
53659;BME280;41524;35.624;139.698;2024-01-30T16:55:11;102641.00;;;4.72;42.51
53659;BME280;41524;35.624;139.698;2024-01-30T17:00:12;102646.00;;;4.35;43.11
53659;BME280;41524;35.624;139.698;2024-01-30T17:05:10;102642.00;;;4.09;43.46
53659;BME280;41524;35.624;139.698;2024-01-30T17:10:11;102639.00;;;4.37;42.90
53659;BME280;41524;35.624;139.698;2024-01-30T17:15:11;102632.00;;;4.27;43.16
53659;BME280;41524;35.624;139.698;2024-01-30T17:20:11;102623.00;;;4.44;43.21
53659;BME280;41524;35.624;139.698;2024-01-30T17:25:11;102622.00;;;3.89;43.97
53659;BME280;41524;35.624;139.698;2024-01-30T17:30:14;102620.00;;;4.29;43.88
53659;BME280;41524;35.624;139.698;2024-01-30T17:35:10;102617.00;;;4.60;43.61
53659;BME280;41524;35.624;139.698;2024-01-30T17:40:13;102609.00;;;3.68;44.91
53659;BME280;41524;35.624;139.698;2024-01-30T17:45:12;102603.00;;;4.43;43.90
53659;BME280;41524;35.624;139.698;2024-01-30T17:50:14;102597.00;;;4.19;44.53
53659;BME280;41524;35.624;139.698;2024-01-30T17:55:10;102594.00;;;4.53;43.83
53659;BME280;41524;35.624;139.698;2024-01-30T18:00:12;102593.00;;;4.78;44.14
53659;BME280;41524;35.624;139.698;2024-01-30T18:05:13;102585.00;;;3.87;45.46
53659;BME280;41524;35.624;139.698;2024-01-30T18:10:10;102585.00;;;4.03;45.15
53659;BME280;41524;35.624;139.698;2024-01-30T18:15:12;102587.00;;;4.52;44.88
53659;BME280;41524;35.624;139.698;2024-01-30T18:20:11;102574.00;;;4.38;44.86
53659;BME280;41524;35.624;139.698;2024-01-30T18:25:10;102571.00;;;3.83;46.04
53659;BME280;41524;35.624;139.698;2024-01-30T18:30:12;102563.00;;;4.00;45.81
53659;BME280;41524;35.624;139.698;2024-01-30T18:35:10;102562.00;;;3.56;46.18
53659;BME280;41524;35.624;139.698;2024-01-30T18:40:12;102561.00;;;4.39;44.83
53659;BME280;41524;35.624;139.698;2024-01-30T18:45:11;102558.00;;;4.34;45.02
53659;BME280;41524;35.624;139.698;2024-01-30T18:50:11;102559.00;;;4.76;44.39
53659;BME280;41524;35.624;139.698;2024-01-30T18:55:11;102561.00;;;3.95;45.40
53659;BME280;41524;35.624;139.698;2024-01-30T19:00:12;102554.00;;;4.91;44.36
53659;BME280;41524;35.624;139.698;2024-01-30T19:05:11;102560.00;;;4.50;44.76
53659;BME280;41524;35.624;139.698;2024-01-30T19:10:11;102566.00;;;4.53;44.36
53659;BME280;41524;35.624;139.698;2024-01-30T19:15:10;102566.00;;;4.71;44.00
53659;BME280;41524;35.624;139.698;2024-01-30T19:20:12;102562.00;;;4.55;44.23
53659;BME280;41524;35.624;139.698;2024-01-30T19:25:20;102556.00;;;4.84;43.59
53659;BME280;41524;35.624;139.698;2024-01-30T19:30:11;102557.00;;;4.09;44.14
53659;BME280;41524;35.624;139.698;2024-01-30T19:35:10;102547.00;;;5.20;42.76
53659;BME280;41524;35.624;139.698;2024-01-30T19:40:12;102546.00;;;4.22;44.01
53659;BME280;41524;35.624;139.698;2024-01-30T19:45:11;102544.00;;;4.80;42.84
53659;BME280;41524;35.624;139.698;2024-01-30T19:50:10;102546.00;;;4.18;43.55
53659;BME280;41524;35.624;139.698;2024-01-30T19:55:11;102547.00;;;4.49;43.21
53659;BME280;41524;35.624;139.698;2024-01-30T20:00:11;102556.00;;;3.42;43.84
53659;BME280;41524;35.624;139.698;2024-01-30T20:05:12;102559.00;;;3.68;43.69
53659;BME280;41524;35.624;139.698;2024-01-30T20:10:11;102573.00;;;3.51;43.98
53659;BME280;41524;35.624;139.698;2024-01-30T20:15:11;102576.00;;;3.04;44.41
53659;BME280;41524;35.624;139.698;2024-01-30T20:20:11;102570.00;;;3.45;43.88
53659;BME280;41524;35.624;139.698;2024-01-30T20:25:10;102576.00;;;2.62;44.82
53659;BME280;41524;35.624;139.698;2024-01-30T20:30:12;102575.00;;;2.99;44.52
53659;BME280;41524;35.624;139.698;2024-01-30T20:35:11;102579.00;;;2.92;44.80
53659;BME280;41524;35.624;139.698;2024-01-30T20:40:11;102571.00;;;3.26;44.42
53659;BME280;41524;35.624;139.698;2024-01-30T20:45:11;102571.00;;;3.05;44.76
53659;BME280;41524;35.624;139.698;2024-01-30T20:50:11;102560.00;;;3.58;43.73
53659;BME280;41524;35.624;139.698;2024-01-30T20:55:10;102558.00;;;3.61;43.95
53659;BME280;41524;35.624;139.698;2024-01-30T21:00:12;102553.00;;;3.47;43.80
53659;BME280;41524;35.624;139.698;2024-01-30T21:05:24;102553.00;;;3.92;43.00
53659;BME280;41524;35.624;139.698;2024-01-30T21:10:11;102548.00;;;4.15;42.37
53659;BME280;41524;35.624;139.698;2024-01-30T21:15:11;102549.00;;;4.30;42.12
53659;BME280;41524;35.624;139.698;2024-01-30T21:20:12;102556.00;;;4.49;41.75
53659;BME280;41524;35.624;139.698;2024-01-30T21:25:11;102559.00;;;3.97;42.16
53659;BME280;41524;35.624;139.698;2024-01-30T21:30:11;102556.00;;;4.34;41.98
53659;BME280;41524;35.624;139.698;2024-01-30T21:35:12;102557.00;;;3.59;42.82
53659;BME280;41524;35.624;139.698;2024-01-30T21:40:10;102560.00;;;2.86;43.82
53659;BME280;41524;35.624;139.698;2024-01-30T21:45:12;102556.00;;;3.72;43.14
53659;BME280;41524;35.624;139.698;2024-01-30T21:50:11;102546.00;;;4.00;42.61
53659;BME280;41524;35.624;139.698;2024-01-30T21:55:10;102547.00;;;3.53;42.87
53659;BME280;41524;35.624;139.698;2024-01-30T22:00:12;102546.00;;;4.43;41.85
53659;BME280;41524;35.624;139.698;2024-01-30T22:05:11;102566.00;;;4.34;41.62
53659;BME280;41524;35.624;139.698;2024-01-30T22:10:12;102570.00;;;2.86;43.64
53659;BME280;41524;35.624;139.698;2024-01-30T22:15:12;102560.00;;;3.36;43.32
53659;BME280;41524;35.624;139.698;2024-01-30T22:20:11;102556.00;;;3.60;42.96
53659;BME280;41524;35.624;139.698;2024-01-30T22:25:10;102550.00;;;4.77;42.58
53659;BME280;41524;35.624;139.698;2024-01-30T22:30:12;102558.00;;;4.75;41.84
53659;BME280;41524;35.624;139.698;2024-01-30T22:35:10;102544.00;;;5.08;43.87
53659;BME280;41524;35.624;139.698;2024-01-30T22:40:12;102541.00;;;4.69;43.10
53659;BME280;41524;35.624;139.698;2024-01-30T22:45:10;102535.00;;;4.17;42.87
53659;BME280;41524;35.624;139.698;2024-01-30T22:50:10;102527.00;;;5.59;42.53
53659;BME280;41524;35.624;139.698;2024-01-30T22:55:11;102510.00;;;6.32;41.61
53659;BME280;41524;35.624;139.698;2024-01-30T23:00:12;102504.00;;;6.65;40.53
53659;BME280;41524;35.624;139.698;2024-01-30T23:05:13;102496.00;;;6.42;41.31
53659;BME280;41524;35.624;139.698;2024-01-30T23:10:11;102490.00;;;6.16;40.57
53659;BME280;41524;35.624;139.698;2024-01-30T23:15:11;102485.00;;;8.94;36.17
53659;BME280;41524;35.624;139.698;2024-01-30T23:20:11;102501.00;;;10.16;34.32
53659;BME280;41524;35.624;139.698;2024-01-30T23:25:11;102516.00;;;11.68;34.42
53659;BME280;41524;35.624;139.698;2024-01-30T23:30:11;102498.00;;;12.72;31.84
53659;BME280;41524;35.624;139.698;2024-01-30T23:35:11;102499.00;;;14.38;29.46
53659;BME280;41524;35.624;139.698;2024-01-30T23:40:12;102492.00;;;15.79;26.62
53659;BME280;41524;35.624;139.698;2024-01-30T23:45:10;102487.00;;;14.89;26.76
53659;BME280;41524;35.624;139.698;2024-01-30T23:50:11;102486.00;;;17.82;24.03
53659;BME280;41524;35.624;139.698;2024-01-30T23:55:11;102474.00;;;17.07;25.41
